Wickes, AR

9:38 AM CST on January 22, 2017 (GMT -0600)
DeQueen Lake | | Change Station
Active Advisory: Lake Wind Advisory

Elev 607 ft 34.10 °N, 94.34 °W | Updated 7 seconds ago

Mostly Cloudy
Mostly Cloudy
52.3 °F
Feels Like 52.3 °F
N
2.0
Wind Variable Wind from SW
Gusts 2.5 mph

Today
High -- | Low -- °F
--% Chance of Precip.
Yesterday
High -- | Low -- °F
Precip. -- in
Pressure 29.37 in
Visibility 9.0 miles
Clouds Scattered Clouds 11000 ft
Dew Point 38 °F
Humidity 59%
Rainfall 0.00 in
Snow Depth Not available.
7:20 AM 5:37 PM
Waning Crescent, 25% visible
METAR KDEQ 221453Z AUTO 00000KT 9SM SCT110 11/11 A2938 RMK AO2 SLP945 T01060106 53012
Pressure 29.37 in
Visibility 9.0 miles
Clouds Scattered Clouds 11000 ft
Dew Point 38 °F
Humidity 59%
Rainfall 0.00 in
Snow Depth Not available.
7:20 AM 5:37 PM
Waning Crescent, 25% visible
METAR KDEQ 221453Z AUTO 00000KT 9SM SCT110 11/11 A2938 RMK AO2 SLP945 T01060106 53012

Get Your Daily Forecast Email!

Thanks for signing up!

Be on the lookout for a verification email in your inbox.

You'll start receiving the daily forecast at 8 AM.

×

10-Day Weather Forecast

Almanac

Astronomy

Jan. 22, 2017 Rise Set
Actual Time
Civil Twilight
Nautical Twilight
Astronomical Twilight
Moon
Length of Visible Light
Length of Day
Tomorrow will be .
, % of the Moon is Illuminated

Today's Extremes

State Highs State Lows

Community

WunderPhotos

Upload Photos

1,962,540 photos uploaded!

WunderBlog® & News

Nearby

Air Quality

  Air Quality AQ Index Pollutant
Not available.

Snow Depth

Station Depth Elevation

Earthquake Activity

City Distance Mag. Time & Date
Minimum magnitude displayed is 2.5.

Coastal Water Temperatures

Place Temperature

Stations

Nearby Weather Stations

Station Location Temp. Windchill Dew Point Humidity Wind Precip. Elev Updated Type
                   

Watches & Warnings

Lake Wind Advisory
Issued: 3:22 AM CST Jan. 22, 2017 – National Weather Service

... Lake Wind Advisory in effect from 3 PM this afternoon to 3 am
CST Monday...

The National Weather Service in Little Rock has issued a lake
Wind Advisory... which is in effect from 3 PM this afternoon to
3 am CST Monday.

* Event... gusty winds are expected.

* Areas affected... a large part of Arkansas.

* Timing... the strongest winds will be during the evening hours.

* Winds... winds of 15 to 25 mph are likely... with gusts to 35 mph.

* Impacts... winds will cause rough conditions on area bodies of
water.

Precautionary/preparedness actions...

A lake Wind Advisory indicates that winds will cause rough chop
on area lakes. Small boats will be especially prone to capsizing.



57